Time;durP1;ratioP1;P1;durP2;ratioP2;P2;SDS_P1;SDS_P2;PMS_P1;PMS_P2;Temp;Humidity;BMP_temperature;BMP_pressure;BME280_temperature;BME280_humidity;BME280_pressure;Samples;Min_cycle;Max_cycle;Signal;HPM_P1;HPM_P2
2022/01/13 00:00:30;;;;;;;;;23.33;18.33;;;;;-149.69;100.00;58464.25;6105780;23;8954;-92
2022/01/13 00:02:56;;;;;;;;;28.67;21.00;;;;;-149.69;100.00;58464.25;6106700;23;9433;-92
2022/01/13 00:05:27;;;;;;;;;13.00;11.67;;;;;-149.69;100.00;58464.25;6131605;23;8809;-92
2022/01/13 00:07:55;;;;;;;;;23.67;19.67;;;;;-149.69;100.00;58464.25;6105532;23;8739;-92
2022/01/13 00:10:22;;;;;;;;;21.33;20.00;;;;;-149.69;100.00;58464.25;6106098;23;9484;-92
2022/01/13 00:12:55;;;;;;;;;24.33;19.00;;;;;-149.69;100.00;58464.25;6106395;23;9328;-93
2022/01/13 00:15:25;;;;;;;;;25.00;19.33;;;;;-149.69;100.00;58464.25;6107512;23;9308;-93
2022/01/13 00:18:00;;;;;;;;;19.00;19.00;;;;;-149.69;100.00;58464.25;6116132;23;9450;-93
2022/01/13 00:25:33;;;;;;;;;20.67;12.33;;;;;-149.69;100.00;58464.25;6139359;23;8769;-92
2022/01/13 00:28:01;;;;;;;;;22.67;19.00;;;;;-149.69;100.00;58464.25;6133820;23;9324;-92
2022/01/13 00:30:26;;;;;;;;;21.00;18.67;;;;;-149.69;100.00;58464.25;6106127;23;9509;-92
2022/01/13 00:32:52;;;;;;;;;27.67;21.00;;;;;-149.69;100.00;58464.25;6215215;22;9377;-93
2022/01/13 00:35:17;;;;;;;;;17.67;14.00;;;;;-149.69;100.00;58464.25;6284213;22;8793;-92
2022/01/13 00:37:43;;;;;;;;;18.67;17.67;;;;;-149.69;100.00;58464.25;6282353;22;8769;-92
2022/01/13 00:40:09;;;;;;;;;18.33;15.67;;;;;-149.69;100.00;58464.25;6257033;22;8766;-92
2022/01/13 00:42:34;;;;;;;;;22.33;18.33;;;;;-149.69;100.00;58464.25;6282581;22;8727;-93
2022/01/13 00:45:01;;;;;;;;;21.67;16.67;;;;;-149.69;100.00;58464.25;6284644;22;9160;-93
2022/01/13 00:47:29;;;;;;;;;18.00;15.00;;;;;-149.69;100.00;58464.25;6284539;22;8752;-92
2022/01/13 00:49:57;;;;;;;;;18.00;15.00;;;;;-149.69;100.00;58464.25;6282259;22;9139;-93
2022/01/13 00:52:23;;;;;;;;;19.00;14.67;;;;;-149.69;100.00;58464.25;6283866;22;9193;-91
2022/01/13 00:54:48;;;;;;;;;20.00;15.33;;;;;-149.69;100.00;58464.25;6284970;22;9218;-92
2022/01/13 00:57:14;;;;;;;;;24.33;18.67;;;;;-149.69;100.00;58464.25;6256400;22;9392;-91
2022/01/13 00:59:39;;;;;;;;;26.00;19.33;;;;;-149.69;100.00;58464.25;6281813;22;8750;-91
2022/01/13 01:02:04;;;;;;;;;22.00;16.67;;;;;-149.69;100.00;58464.25;6282682;22;8788;-92
2022/01/13 01:04:29;;;;;;;;;25.67;19.33;;;;;-149.69;100.00;58464.25;6282245;22;8876;-92
2022/01/13 01:19:37;;;;;;;;;17.00;15.00;;;;;-149.69;100.00;58464.25;6255252;22;9242;-91
2022/01/13 01:27:28;;;;;;;;;14.00;13.00;;;;;-149.69;100.00;58464.25;6283620;22;9305;-91
2022/01/13 01:30:03;;;;;;;;;19.00;16.33;;;;;-149.69;100.00;58464.25;6256089;22;9375;-92
2022/01/13 01:32:29;;;;;;;;;17.00;15.00;;;;;-149.69;100.00;58464.25;6256448;22;10042;-91
2022/01/13 01:34:56;;;;;;;;;16.33;14.67;;;;;-149.69;100.00;58464.25;6256607;22;9397;-91
2022/01/13 01:37:27;;;;;;;;;21.33;18.67;;;;;-149.69;100.00;58464.25;6255867;22;9474;-91
2022/01/13 01:39:55;;;;;;;;;20.67;16.33;;;;;-149.69;100.00;58464.25;6256486;22;9524;-92
2022/01/13 01:42:22;;;;;;;;;14.67;14.00;;;;;-149.69;100.00;58464.25;6255736;22;9364;-92
2022/01/13 01:44:52;;;;;;;;;10.00;9.33;;;;;-149.69;100.00;58464.25;6255084;22;9685;-92
2022/01/13 01:47:18;;;;;;;;;16.00;16.00;;;;;-149.69;100.00;58464.25;6255789;22;9234;-92
2022/01/13 01:49:48;;;;;;;;;19.00;16.67;;;;;-149.69;100.00;58464.25;6256012;22;9291;-92
2022/01/13 01:52:18;;;;;;;;;13.67;8.00;;;;;-149.69;100.00;58464.25;6255875;22;9310;-91
2022/01/13 01:54:45;;;;;;;;;16.67;14.33;;;;;-149.69;100.00;58464.25;6292982;22;9124;-91
2022/01/13 01:57:10;;;;;;;;;12.00;9.00;;;;;-149.69;100.00;58464.25;6265225;22;9177;-91
2022/01/13 01:59:39;;;;;;;;;13.00;10.33;;;;;-149.69;100.00;58464.25;6264852;22;9335;-92
2022/01/13 02:02:06;;;;;;;;;14.67;13.00;;;;;-149.69;100.00;58464.25;6265597;22;8824;-92
2022/01/13 02:04:31;;;;;;;;;11.00;9.67;;;;;-149.69;100.00;58464.25;6262169;22;9227;-92
2022/01/13 02:07:02;;;;;;;;;16.00;11.33;;;;;-149.69;100.00;58464.25;6284567;22;9261;-92
2022/01/13 02:09:27;;;;;;;;;15.33;11.67;;;;;-149.69;100.00;58464.25;6256088;22;8919;-93
2022/01/13 02:11:57;;;;;;;;;15.00;13.00;;;;;-149.69;100.00;58464.25;6256231;22;9572;-92
2022/01/13 02:16:55;;;;;;;;;13.67;10.33;;;;;-149.69;100.00;58464.25;6284021;22;9464;-92
2022/01/13 02:19:24;;;;;;;;;16.33;11.67;;;;;-149.69;100.00;58464.25;6282886;22;9220;-91
2022/01/13 02:21:51;;;;;;;;;13.67;13.67;;;;;-149.69;100.00;58464.25;6257134;22;9245;-92
2022/01/13 02:24:16;;;;;;;;;16.67;14.33;;;;;-149.69;100.00;58464.25;6282735;22;9188;-92
2022/01/13 02:26:41;;;;;;;;;14.33;11.00;;;;;-149.69;100.00;58464.25;6256986;22;9263;-92
2022/01/13 02:29:07;;;;;;;;;13.67;9.67;;;;;-149.69;100.00;58464.25;6282088;22;9202;-92
2022/01/13 02:31:32;;;;;;;;;16.00;11.67;;;;;-149.69;100.00;58464.25;6283284;22;8762;-92
2022/01/13 02:33:57;;;;;;;;;14.67;11.00;;;;;-149.69;100.00;58464.25;6283084;22;8773;-91
2022/01/13 02:36:24;;;;;;;;;14.00;10.67;;;;;-149.69;100.00;58464.25;6285060;22;8798;-92
2022/01/13 02:38:54;;;;;;;;;12.33;10.00;;;;;-149.69;100.00;58464.25;6282380;22;8778;-93
2022/01/13 02:41:24;;;;;;;;;16.00;14.00;;;;;-149.69;100.00;58464.25;6258104;22;9072;-92
2022/01/13 02:43:55;;;;;;;;;12.67;9.67;;;;;-149.69;100.00;58464.25;6286374;22;9183;-93
2022/01/13 02:49:00;;;;;;;;;11.00;10.00;;;;;-149.69;100.00;58464.25;6289750;22;9095;-93
2022/01/13 02:51:27;;;;;;;;;15.67;13.67;;;;;-149.69;100.00;58464.25;6267294;22;9004;-93
2022/01/13 02:53:52;;;;;;;;;11.67;9.33;;;;;-149.69;100.00;58464.25;6291206;22;9097;-93
2022/01/13 02:56:18;;;;;;;;;14.33;10.33;;;;;-149.69;100.00;58464.25;6284808;22;9359;-92
2022/01/13 02:58:45;;;;;;;;;11.00;9.67;;;;;-149.69;100.00;58464.25;6281928;22;8750;-92
2022/01/13 03:01:11;;;;;;;;;13.33;9.33;;;;;-149.69;100.00;58464.25;6257637;22;8754;-92
2022/01/13 03:03:38;;;;;;;;;10.00;10.00;;;;;-149.69;100.00;58464.25;6285293;22;9348;-92
2022/01/13 03:06:23;;;;;;;;;13.75;13.00;;;;;-149.69;100.00;58464.25;6285271;22;9444;-93
2022/01/13 03:08:50;;;;;;;;;15.00;11.67;;;;;-149.69;100.00;58464.25;6256788;22;9583;-94
2022/01/13 03:11:16;;;;;;;;;9.33;9.33;;;;;-149.69;100.00;58464.25;6285985;22;9549;-93
2022/01/13 03:13:41;;;;;;;;;14.00;10.33;;;;;-149.69;100.00;58464.25;6256084;22;9313;-92
2022/01/13 03:16:09;;;;;;;;;11.00;10.00;;;;;-149.69;100.00;58464.25;6284851;22;8922;-92
2022/01/13 03:18:35;;;;;;;;;9.00;7.33;;;;;-149.69;100.00;58464.25;6284855;22;8735;-92
2022/01/13 03:21:01;;;;;;;;;13.67;12.00;;;;;-149.69;100.00;58464.25;6256872;22;10098;-93
2022/01/13 03:23:27;;;;;;;;;12.67;12.67;;;;;-149.69;100.00;58464.25;6256843;22;9161;-93
2022/01/13 03:25:53;;;;;;;;;13.67;11.00;;;;;-149.69;100.00;58464.25;6283274;22;9919;-92
2022/01/13 03:28:29;;;;;;;;;13.33;13.33;;;;;-149.69;100.00;58464.25;6255945;22;8813;-92
2022/01/13 03:30:56;;;;;;;;;13.00;10.00;;;;;-149.69;100.00;58464.25;6256145;22;10097;-93
2022/01/13 03:33:22;;;;;;;;;13.67;10.33;;;;;-149.69;100.00;58464.25;6256425;22;9283;-92
2022/01/13 03:35:47;;;;;;;;;14.67;11.00;;;;;-149.69;100.00;58464.25;6263202;22;9260;-92
2022/01/13 03:38:13;;;;;;;;;15.67;13.00;;;;;-149.69;100.00;58464.25;6293801;22;9299;-92
2022/01/13 03:40:39;;;;;;;;;14.33;11.00;;;;;-149.69;100.00;58464.25;6294097;22;8810;-93
2022/01/13 03:43:05;;;;;;;;;11.33;10.00;;;;;-149.69;100.00;58464.25;6291115;22;8742;-93
2022/01/13 03:45:32;;;;;;;;;14.33;12.33;;;;;-149.69;100.00;58464.25;6265491;22;8757;-92
2022/01/13 03:47:58;;;;;;;;;14.67;11.67;;;;;-149.69;100.00;58464.25;6283736;22;9239;-92
2022/01/13 03:50:24;;;;;;;;;18.67;10.67;;;;;-149.69;100.00;58464.25;6283486;22;9153;-92
2022/01/13 03:53:01;;;;;;;;;11.00;10.00;;;;;-149.69;100.00;58464.25;6282558;22;9320;-92
2022/01/13 03:55:35;;;;;;;;;17.00;10.33;;;;;-149.69;100.00;58464.25;6282899;22;9018;-92
2022/01/13 03:58:19;;;;;;;;;14.00;10.00;;;;;-149.69;100.00;58464.25;6280868;22;9158;-91
2022/01/13 04:00:54;;;;;;;;;11.67;11.33;;;;;-149.69;100.00;58464.25;6282098;22;9446;-92
2022/01/13 04:03:19;;;;;;;;;11.67;11.67;;;;;-149.69;100.00;58464.25;6284577;22;9442;-93
2022/01/13 04:06:09;;;;;;;;;12.00;10.00;;;;;-149.69;100.00;58464.25;6282503;22;9505;-92
2022/01/13 04:08:35;;;;;;;;;13.67;11.00;;;;;-149.69;100.00;58464.25;6281305;22;8727;-92
2022/01/13 04:11:03;;;;;;;;;14.33;8.33;;;;;-149.69;100.00;58464.25;6284667;22;9517;-92
2022/01/13 04:13:45;;;;;;;;;15.67;14.00;;;;;-149.69;100.00;58464.25;6281201;22;8735;-93
2022/01/13 04:16:14;;;;;;;;;13.33;10.33;;;;;-149.69;100.00;58464.25;6285328;22;9350;-92
2022/01/13 04:18:40;;;;;;;;;17.33;10.33;;;;;-149.69;100.00;58464.25;6255989;22;9431;-93
2022/01/13 04:21:06;;;;;;;;;13.33;11.67;;;;;-149.69;100.00;58464.25;6284143;22;9405;-92
2022/01/13 04:23:32;;;;;;;;;15.67;10.00;;;;;-149.69;100.00;58464.25;6256099;22;8789;-93
2022/01/13 04:25:58;;;;;;;;;13.00;11.67;;;;;-149.69;100.00;58464.25;6257099;22;8762;-93
2022/01/13 04:28:28;;;;;;;;;18.33;12.67;;;;;-149.69;100.00;58464.25;6287862;22;9341;-93
2022/01/13 04:31:00;;;;;;;;;22.33;15.67;;;;;-149.69;100.00;58464.25;6266008;22;9391;-92
2022/01/13 04:33:29;;;;;;;;;8.67;8.67;;;;;-149.69;100.00;58464.25;6266309;22;9355;-92
2022/01/13 04:35:54;;;;;;;;;14.33;12.00;;;;;-149.69;100.00;58464.25;6265999;22;9177;-93
2022/01/13 04:38:20;;;;;;;;;15.33;14.00;;;;;-149.69;100.00;58464.25;6264194;22;9234;-93
2022/01/13 04:40:48;;;;;;;;;12.67;12.67;;;;;-149.69;100.00;58464.25;6286296;22;8765;-92
2022/01/13 04:43:14;;;;;;;;;14.67;10.00;;;;;-149.69;100.00;58464.25;6283684;22;8741;-93
2022/01/13 04:45:40;;;;;;;;;17.67;13.67;;;;;-149.69;100.00;58464.25;6256977;22;9227;-92
2022/01/13 04:48:06;;;;;;;;;10.00;8.67;;;;;-149.69;100.00;58464.25;6283942;22;9235;-93
2022/01/13 04:50:31;;;;;;;;;14.00;10.67;;;;;-149.69;100.00;58464.25;6256765;22;8800;-92
2022/01/13 04:52:57;;;;;;;;;13.67;10.67;;;;;-149.69;100.00;58464.25;6256953;22;9400;-92
2022/01/13 04:55:29;;;;;;;;;16.33;13.00;;;;;-149.69;100.00;58464.25;6256765;22;8801;-92
2022/01/13 04:57:54;;;;;;;;;16.00;13.00;;;;;-149.69;100.00;58464.25;6282454;22;8722;-93
2022/01/13 05:00:20;;;;;;;;;12.33;11.33;;;;;-149.69;100.00;58464.25;6285627;22;9380;-92
2022/01/13 05:02:45;;;;;;;;;13.00;10.00;;;;;-149.69;100.00;58464.25;6283939;22;8777;-92
2022/01/13 05:05:12;;;;;;;;;17.67;9.33;;;;;-149.69;100.00;58464.25;6284600;22;9086;-91
2022/01/13 05:07:37;;;;;;;;;12.67;8.67;;;;;-149.69;100.00;58464.25;6255873;22;8765;-92
2022/01/13 05:10:03;;;;;;;;;12.00;12.00;;;;;-149.69;100.00;58464.25;6256543;22;9154;-92
2022/01/13 05:12:34;;;;;;;;;11.67;8.67;;;;;-149.69;100.00;58464.25;6255262;22;8754;-93
2022/01/13 05:15:05;;;;;;;;;10.00;8.33;;;;;-149.69;100.00;58464.25;6289985;22;9451;-92
2022/01/13 05:20:21;;;;;;;;;10.33;9.33;;;;;-149.69;100.00;58464.25;6286856;22;9244;-92
2022/01/13 05:22:47;;;;;;;;;13.33;12.00;;;;;-149.69;100.00;58464.25;6265608;22;9881;-93
2022/01/13 05:25:14;;;;;;;;;13.00;10.00;;;;;-149.69;100.00;58464.25;6294057;22;9285;-93
2022/01/13 05:27:39;;;;;;;;;12.67;10.33;;;;;-149.69;100.00;58464.25;6289954;22;9214;-92
2022/01/13 05:30:07;;;;;;;;;9.75;8.50;;;;;-149.69;100.00;58464.25;6266012;22;9452;-93
2022/01/13 05:32:32;;;;;;;;;12.67;10.00;;;;;-149.69;100.00;58464.25;6290134;22;8849;-93
2022/01/13 05:34:58;;;;;;;;;13.00;12.33;;;;;-149.69;100.00;58464.25;6291596;22;9501;-92
2022/01/13 05:37:23;;;;;;;;;9.00;9.00;;;;;-149.69;100.00;58464.25;6259407;22;8778;-92
2022/01/13 05:39:49;;;;;;;;;11.00;10.67;;;;;-149.69;100.00;58464.25;6256567;22;9274;-92
2022/01/13 05:42:14;;;;;;;;;11.33;9.00;;;;;-149.69;100.00;58464.25;6255927;22;8751;-91
2022/01/13 05:44:39;;;;;;;;;10.67;9.33;;;;;-149.69;100.00;58464.25;6283782;22;8746;-92
2022/01/13 05:47:11;;;;;;;;;10.33;9.00;;;;;-149.69;100.00;58464.25;6256626;22;8770;-92
2022/01/13 05:49:40;;;;;;;;;9.00;9.00;;;;;-149.69;100.00;58464.25;6256737;22;8751;-92
2022/01/13 05:52:07;;;;;;;;;9.33;9.33;;;;;-149.69;100.00;58464.25;6283498;22;9230;-92
2022/01/13 05:54:32;;;;;;;;;12.67;8.33;;;;;-149.69;100.00;58464.25;6284110;22;9137;-92
2022/01/13 05:56:58;;;;;;;;;12.67;8.67;;;;;-149.69;100.00;58464.25;6257028;22;9235;-92
2022/01/13 05:59:24;;;;;;;;;15.00;13.00;;;;;-149.69;100.00;58464.25;6256066;22;8843;-92
2022/01/13 06:01:49;;;;;;;;;14.00;12.00;;;;;-149.69;100.00;58464.25;6283729;22;8849;-92
2022/01/13 06:04:14;;;;;;;;;7.33;5.33;;;;;-149.69;100.00;58464.25;6283318;22;9480;-91
2022/01/13 06:06:40;;;;;;;;;8.00;6.00;;;;;-149.69;100.00;58464.25;6257075;22;8848;-91
2022/01/13 06:09:05;;;;;;;;;13.33;9.67;;;;;-149.69;100.00;58464.25;6282162;22;8763;-92
2022/01/13 06:11:38;;;;;;;;;14.67;11.33;;;;;-149.69;100.00;58464.25;6285439;22;8766;-92
2022/01/13 06:14:04;;;;;;;;;13.00;10.67;;;;;-149.69;100.00;58464.25;6286428;22;8719;-92
2022/01/13 06:16:29;;;;;;;;;15.67;12.67;;;;;-149.69;100.00;58464.25;6277025;22;9391;-91
2022/01/13 06:18:54;;;;;;;;;18.67;14.67;;;;;-149.69;100.00;58464.25;6292960;22;9468;-91
2022/01/13 06:21:20;;;;;;;;;15.67;14.00;;;;;-149.69;100.00;58464.25;6294614;22;8762;-92
2022/01/13 06:23:45;;;;;;;;;15.00;12.67;;;;;-149.69;100.00;58464.25;6293726;22;8835;-92
2022/01/13 06:26:10;;;;;;;;;15.67;9.67;;;;;-149.69;100.00;58464.25;6288684;22;9506;-92
2022/01/13 06:28:36;;;;;;;;;17.33;12.00;;;;;-149.69;100.00;58464.25;6281348;22;8750;-92
2022/01/13 06:31:01;;;;;;;;;14.67;10.00;;;;;-149.69;100.00;58464.25;6282576;22;8788;-91
2022/01/13 06:33:27;;;;;;;;;14.33;10.00;;;;;-149.69;100.00;58464.25;6282903;22;8778;-92
2022/01/13 06:35:53;;;;;;;;;15.00;11.67;;;;;-149.69;100.00;58464.25;6257573;22;8743;-91
2022/01/13 06:38:19;;;;;;;;;17.67;11.33;;;;;-149.69;100.00;58464.25;6281707;22;9137;-92
2022/01/13 06:40:44;;;;;;;;;9.00;9.00;;;;;-149.69;100.00;58464.25;6285124;22;9361;-92
2022/01/13 06:43:09;;;;;;;;;17.00;13.67;;;;;-149.69;100.00;58464.25;6282157;22;9561;-91
2022/01/13 06:45:35;;;;;;;;;19.67;16.67;;;;;-149.69;100.00;58464.25;6282972;22;8788;-91
2022/01/13 06:48:02;;;;;;;;;21.67;18.67;;;;;-149.69;100.00;58464.25;6282761;22;8763;-92
2022/01/13 06:50:28;;;;;;;;;17.33;14.33;;;;;-149.69;100.00;58464.25;6257183;22;8786;-92
2022/01/13 06:52:54;;;;;;;;;20.67;17.00;;;;;-149.69;100.00;58464.25;6283651;22;9296;-92
2022/01/13 06:55:19;;;;;;;;;15.00;13.33;;;;;-149.69;100.00;58464.25;6256897;22;9575;-91
2022/01/13 06:57:46;;;;;;;;;16.33;15.00;;;;;-149.69;100.00;58464.25;6284001;22;9621;-92
2022/01/13 07:00:12;;;;;;;;;24.00;16.00;;;;;-149.69;100.00;58464.25;6256843;22;8735;-92
2022/01/13 07:02:38;;;;;;;;;23.67;14.33;;;;;-149.69;100.00;58464.25;6257196;22;9540;-92
2022/01/13 07:05:03;;;;;;;;;17.50;15.00;;;;;-149.69;100.00;58464.25;6257705;22;10184;-93
2022/01/13 07:07:35;;;;;;;;;15.67;13.00;;;;;-149.69;100.00;58464.25;6264357;22;8848;-91
2022/01/13 07:10:02;;;;;;;;;11.67;9.00;;;;;-149.69;100.00;58464.25;6266902;22;8690;-92
2022/01/13 07:12:27;;;;;;;;;19.67;16.33;;;;;-149.69;100.00;58464.25;6265292;22;9300;-92
2022/01/13 07:14:52;;;;;;;;;14.67;11.67;;;;;-149.69;100.00;58464.25;6294224;22;9449;-92
2022/01/13 07:17:18;;;;;;;;;14.00;13.00;;;;;-149.69;100.00;58464.25;6292641;22;8758;-92
2022/01/13 07:19:47;;;;;;;;;18.00;13.00;;;;;-149.69;100.00;58464.25;6284582;22;8770;-91
2022/01/13 07:22:16;;;;;;;;;11.00;9.67;;;;;-149.69;100.00;58464.25;6282209;22;8746;-92
2022/01/13 07:24:41;;;;;;;;;19.33;15.33;;;;;-149.69;100.00;58464.25;6256919;22;9301;-92
2022/01/13 07:27:07;;;;;;;;;13.67;12.33;;;;;-149.69;100.00;58464.25;6282733;22;9387;-92
2022/01/13 07:29:32;;;;;;;;;16.67;14.33;;;;;-149.69;100.00;58464.25;6281605;22;8777;-91
2022/01/13 07:31:57;;;;;;;;;15.00;13.00;;;;;-149.69;100.00;58464.25;6286044;22;8782;-94
2022/01/13 07:34:23;;;;;;;;;16.33;15.00;;;;;-149.69;100.00;58464.25;6287641;22;8789;-94
2022/01/13 07:36:48;;;;;;;;;18.33;13.00;;;;;-149.69;100.00;58464.25;6284957;22;9555;-92
2022/01/13 07:39:13;;;;;;;;;18.33;12.67;;;;;-149.69;100.00;58464.25;6255885;22;10013;-91
2022/01/13 07:41:39;;;;;;;;;23.00;15.00;;;;;-149.69;100.00;58464.25;6280252;22;8878;-93
2022/01/13 07:44:05;;;;;;;;;15.67;10.00;;;;;-149.69;100.00;58464.25;6279925;22;8873;-93
2022/01/13 07:46:31;;;;;;;;;13.00;11.67;;;;;-149.69;100.00;58464.25;6255171;22;8844;-92
2022/01/13 07:48:56;;;;;;;;;18.00;15.67;;;;;-149.69;100.00;58464.25;6256078;22;9493;-94
2022/01/13 07:51:22;;;;;;;;;20.00;15.33;;;;;-149.69;100.00;58464.25;6281962;22;8762;-92
2022/01/13 07:53:50;;;;;;;;;18.33;13.33;;;;;-149.69;100.00;58464.25;6256461;22;8774;-92
2022/01/13 07:56:15;;;;;;;;;19.00;14.00;;;;;-149.69;100.00;58464.25;6281542;22;10069;-91
2022/01/13 07:58:41;;;;;;;;;16.67;12.67;;;;;-149.69;100.00;58464.25;6263111;22;9529;-90
2022/01/13 08:01:07;;;;;;;;;18.67;14.67;;;;;-149.69;100.00;58464.25;6264097;22;8828;-90
2022/01/13 08:03:32;;;;;;;;;18.00;14.33;;;;;-149.69;100.00;58464.25;6290873;22;9382;-90
2022/01/13 08:06:00;;;;;;;;;20.33;17.00;;;;;-149.69;100.00;58464.25;6290478;22;8919;-90
2022/01/13 08:08:25;;;;;;;;;23.00;15.33;;;;;-149.69;100.00;58464.25;6259256;22;8739;-90
2022/01/13 08:10:51;;;;;;;;;20.33;16.67;;;;;-149.69;100.00;58464.25;6280071;22;9404;-89
2022/01/13 08:13:16;;;;;;;;;20.50;16.25;;;;;-149.69;100.00;58464.25;6282137;22;8759;-89
2022/01/13 08:15:41;;;;;;;;;16.67;14.67;;;;;-149.69;100.00;58464.25;6283136;22;8920;-89
2022/01/13 08:20:53;;;;;;;;;24.25;20.50;;;;;-149.69;100.00;58464.25;6217036;23;9041;-89
2022/01/13 08:23:18;;;;;;;;;16.33;16.00;;;;;-149.69;100.00;58464.25;6217843;23;9656;-89
2022/01/13 08:25:43;;;;;;;;;17.00;15.00;;;;;-149.69;100.00;58464.25;6219402;23;8751;-89
2022/01/13 08:28:10;;;;;;;;;22.67;17.33;;;;;-149.69;100.00;58464.25;6192321;23;8826;-89
2022/01/13 08:30:36;;;;;;;;;20.33;16.67;;;;;-149.69;100.00;58464.25;6218493;23;8731;-88
2022/01/13 08:33:01;;;;;;;;;21.67;16.67;;;;;-149.69;100.00;58464.25;6218395;23;9418;-89
2022/01/13 08:35:27;;;;;;;;;22.25;17.75;;;;;-149.69;100.00;58464.25;6188712;23;8775;-88
2022/01/13 08:37:52;;;;;;;;;23.75;18.00;;;;;-149.69;100.00;58464.25;6213831;23;8735;-88
2022/01/13 08:40:18;;;;;;;;;22.50;18.00;;;;;-149.69;100.00;58464.25;6190662;23;8786;-89
2022/01/13 08:42:44;;;;;;;;;27.75;20.25;;;;;-149.69;100.00;58464.25;6217298;23;8805;-89
2022/01/13 08:45:11;;;;;;;;;21.00;19.33;;;;;-149.69;100.00;58464.25;6190379;23;8904;-90
2022/01/13 08:47:36;;;;;;;;;20.33;18.33;;;;;-149.69;100.00;58464.25;6224154;23;9631;-89
2022/01/13 08:50:06;;;;;;;;;18.33;15.00;;;;;-149.69;100.00;58464.25;6197216;23;9333;-89
2022/01/13 08:52:33;;;;;;;;;19.67;16.67;;;;;-149.69;100.00;58464.25;6222756;23;8828;-89
2022/01/13 08:54:59;;;;;;;;;19.00;15.00;;;;;-149.69;100.00;58464.25;6227418;23;9460;-89
2022/01/13 08:57:24;;;;;;;;;20.00;18.33;;;;;-149.69;100.00;58464.25;6216783;22;9443;-89
2022/01/13 08:59:50;;;;;;;;;17.00;13.00;;;;;-149.69;100.00;58464.25;6282398;22;9391;-89
2022/01/13 09:02:15;;;;;;;;;21.33;14.00;;;;;-149.69;100.00;58464.25;6280511;22;8785;-89
2022/01/13 09:04:40;;;;;;;;;22.33;15.33;;;;;-149.69;100.00;58464.25;6282210;22;8768;-89
2022/01/13 09:07:06;;;;;;;;;24.33;15.00;;;;;-149.69;100.00;58464.25;6281973;22;8762;-89
2022/01/13 09:09:31;;;;;;;;;23.33;18.00;;;;;-149.69;100.00;58464.25;6283048;22;8765;-90
2022/01/13 09:11:57;;;;;;;;;23.67;20.33;;;;;-149.69;100.00;58464.25;6282822;22;8844;-89
2022/01/13 09:14:26;;;;;;;;;30.00;21.50;;;;;-149.69;100.00;58464.25;6279044;22;9126;-89
2022/01/13 09:16:55;;;;;;;;;27.75;24.75;;;;;-149.69;100.00;58464.25;6254570;22;8869;-89
2022/01/13 09:19:20;;;;;;;;;26.50;20.25;;;;;-149.69;100.00;58464.25;6253457;22;9676;-89
2022/01/13 09:21:47;;;;;;;;;23.67;18.67;;;;;-149.69;100.00;58464.25;6254761;22;9625;-89
2022/01/13 09:24:15;;;;;;;;;25.25;20.50;;;;;-149.69;100.00;58464.25;6282194;22;8742;-88
2022/01/13 09:26:42;;;;;;;;;17.75;16.50;;;;;-149.69;100.00;58464.25;6281038;22;9689;-88
2022/01/13 09:29:08;;;;;;;;;25.00;18.00;;;;;-149.69;100.00;58464.25;6253031;22;10262;-90
2022/01/13 09:31:36;;;;;;;;;17.33;13.67;;;;;-149.69;100.00;58464.25;6284011;22;9270;-89
2022/01/13 09:34:05;;;;;;;;;15.67;13.33;;;;;-149.69;100.00;58464.25;6283437;22;9320;-89
2022/01/13 09:36:32;;;;;;;;;19.00;18.00;;;;;-149.69;100.00;58464.25;6283163;22;9363;-88
2022/01/13 09:38:59;;;;;;;;;17.00;15.00;;;;;-149.69;100.00;58464.25;6287820;22;9255;-88
2022/01/13 09:41:30;;;;;;;;;21.67;14.00;;;;;-149.69;100.00;58464.25;6261203;22;9311;-88
2022/01/13 09:43:57;;;;;;;;;18.33;15.33;;;;;-149.69;100.00;58464.25;6262592;22;9408;-89
2022/01/13 09:46:26;;;;;;;;;24.00;19.25;;;;;-149.69;100.00;58464.25;6290393;22;9344;-89
2022/01/13 09:48:51;;;;;;;;;18.33;16.33;;;;;-149.69;100.00;58464.25;6277245;22;9516;-89
2022/01/13 09:51:17;;;;;;;;;20.25;18.25;;;;;-149.69;100.00;58464.25;6283005;22;10035;-88
2022/01/13 09:53:42;;;;;;;;;25.00;21.50;;;;;-149.69;100.00;58464.25;6283149;22;8864;-87
2022/01/13 09:56:08;;;;;;;;;24.00;17.75;;;;;-149.69;100.00;58464.25;6254517;22;8786;-88
2022/01/13 09:58:34;;;;;;;;;23.50;17.00;;;;;-149.69;100.00;58464.25;6251773;22;8844;-88
2022/01/13 10:00:59;;;;;;;;;23.25;21.75;;;;;-149.69;100.00;58464.25;6280020;22;9135;-89
2022/01/13 10:03:26;;;;;;;;;23.00;18.33;;;;;-149.69;100.00;58464.25;6280188;22;8862;-88
2022/01/13 10:05:58;;;;;;;;;24.00;19.75;;;;;-149.69;100.00;58464.25;6284022;22;9470;-88
2022/01/13 10:08:58;;;;;;;;;21.00;17.67;;;;;-149.69;100.00;58464.25;6282323;22;9567;-89
2022/01/13 10:11:36;;;;;;;;;16.33;11.00;;;;;-149.69;100.00;58464.25;6281624;22;9301;-88
2022/01/13 10:16:59;;;;;;;;;22.00;17.00;;;;;-149.69;100.00;58464.25;6283379;22;9492;-88
2022/01/13 10:19:37;;;;;;;;;21.67;17.67;;;;;-149.69;100.00;58464.25;6255152;22;9329;-88
2022/01/13 10:22:15;;;;;;;;;20.67;15.67;;;;;-149.69;100.00;58464.25;6253500;22;9415;-88
2022/01/13 10:24:45;;;;;;;;;22.67;18.67;;;;;-149.69;100.00;58464.25;6280728;22;9454;-88
2022/01/13 10:27:21;;;;;;;;;24.00;22.25;;;;;-149.69;100.00;58464.25;6285911;22;9343;-88
2022/01/13 10:30:01;;;;;;;;;21.67;19.67;;;;;-149.69;100.00;58464.25;6289120;22;9480;-88
2022/01/13 10:32:38;;;;;;;;;25.67;22.00;;;;;-149.69;100.00;58464.25;6289221;22;9464;-88
2022/01/13 10:35:13;;;;;;;;;26.00;21.50;;;;;-149.69;100.00;58464.25;6289959;22;9465;-88
2022/01/13 10:37:40;;;;;;;;;20.00;18.50;;;;;-149.69;100.00;58464.25;6261493;22;9527;-88
2022/01/13 10:40:10;;;;;;;;;24.75;20.25;;;;;-149.69;100.00;58464.25;6257039;22;9532;-88
2022/01/13 10:45:17;;;;;;;;;26.75;23.25;;;;;-149.69;100.00;58464.25;6281760;22;9980;-88
2022/01/13 10:48:06;;;;;;;;;27.33;19.00;;;;;-149.69;100.00;58464.25;6282695;22;9806;-88
2022/01/13 10:50:43;;;;;;;;;24.50;22.00;;;;;-149.69;100.00;58464.25;6262532;22;10226;-88
2022/01/13 10:53:22;;;;;;;;;18.00;15.00;;;;;-149.69;100.00;58464.25;6281992;22;10285;-89
2022/01/13 10:55:51;;;;;;;;;20.67;18.00;;;;;-149.69;100.00;58464.25;6282828;22;9608;-88
2022/01/13 10:58:22;;;;;;;;;22.33;19.00;;;;;-149.69;100.00;58464.25;6253636;22;9566;-88
2022/01/13 11:00:50;;;;;;;;;22.00;15.67;;;;;-149.69;100.00;58464.25;6282774;22;9289;-89
2022/01/13 11:03:21;;;;;;;;;20.33;19.33;;;;;-149.69;100.00;58464.25;6282386;22;9401;-88
2022/01/13 11:05:53;;;;;;;;;22.00;17.00;;;;;-149.69;100.00;58464.25;6282330;22;9480;-89
2022/01/13 11:08:26;;;;;;;;;23.25;18.75;;;;;-149.69;100.00;58464.25;6279927;22;9362;-88
2022/01/13 11:10:54;;;;;;;;;28.00;18.00;;;;;-149.69;100.00;58464.25;6281615;22;9529;-89
2022/01/13 11:13:21;;;;;;;;;20.00;17.75;;;;;-149.69;100.00;58464.25;6253846;22;9533;-88
2022/01/13 11:15:52;;;;;;;;;26.50;21.25;;;;;-149.69;100.00;58464.25;6281673;22;9734;-89
2022/01/13 11:18:22;;;;;;;;;24.00;22.00;;;;;-149.69;100.00;58464.25;6282773;22;9619;-88
2022/01/13 11:20:48;;;;;;;;;26.75;21.50;;;;;-149.69;100.00;58464.25;6289644;22;9752;-88
2022/01/13 11:23:16;;;;;;;;;30.00;22.00;;;;;-149.69;100.00;58464.25;6289695;22;9516;-88
2022/01/13 11:25:44;;;;;;;;;32.00;23.25;;;;;-149.69;100.00;58464.25;6262885;22;9753;-89
2022/01/13 11:28:10;;;;;;;;;27.33;22.00;;;;;-149.69;100.00;58464.25;6286791;22;9762;-88
2022/01/13 11:30:36;;;;;;;;;25.25;24.75;;;;;-149.69;100.00;58464.25;6290596;22;9547;-89
2022/01/13 11:33:01;;;;;;;;;29.75;22.75;;;;;-149.69;100.00;58464.25;6256966;22;8762;-90
2022/01/13 11:35:30;;;;;;;;;24.50;23.75;;;;;-149.69;100.00;58464.25;6255782;22;8786;-91
2022/01/13 11:37:56;;;;;;;;;22.00;19.33;;;;;-149.69;100.00;58464.25;6254469;22;8808;-90
2022/01/13 11:40:28;;;;;;;;;21.67;19.67;;;;;-149.69;100.00;58464.25;6282550;22;9447;-91
2022/01/13 11:42:59;;;;;;;;;20.67;19.33;;;;;-149.69;100.00;58464.25;6278778;22;8820;-88